sensor_id;sensor_type;location;lat;lon;timestamp;pressure;altitude;pressure_sealevel;temperature;humidity
7297;BME280;40758;54.038;11.684;2023-05-03T00:01:40;102488.16;;;4.53;75.15
7297;BME280;40758;54.038;11.684;2023-05-03T00:04:09;102495.81;;;4.48;75.13
7297;BME280;40758;54.038;11.684;2023-05-03T00:06:36;102496.81;;;4.47;75.26
7297;BME280;40758;54.038;11.684;2023-05-03T00:09:03;102496.06;;;4.45;75.77
7297;BME280;40758;54.038;11.684;2023-05-03T00:11:29;102492.69;;;4.43;75.91
7297;BME280;40758;54.038;11.684;2023-05-03T00:13:56;102498.31;;;4.40;75.94
7297;BME280;40758;54.038;11.684;2023-05-03T00:16:22;102491.25;;;4.39;76.04
7297;BME280;40758;54.038;11.684;2023-05-03T00:18:49;102502.00;;;4.39;76.48
7297;BME280;40758;54.038;11.684;2023-05-03T00:21:16;102504.69;;;4.39;76.46
7297;BME280;40758;54.038;11.684;2023-05-03T00:23:42;102500.03;;;4.41;76.78
7297;BME280;40758;54.038;11.684;2023-05-03T00:26:09;102494.66;;;4.41;76.83
7297;BME280;40758;54.038;11.684;2023-05-03T00:28:36;102503.28;;;4.45;76.96
7297;BME280;40758;54.038;11.684;2023-05-03T00:31:09;102506.53;;;4.39;77.26
7297;BME280;40758;54.038;11.684;2023-05-03T00:33:37;102478.06;;;4.26;77.73
7297;BME280;40758;54.038;11.684;2023-05-03T00:38:35;102515.38;;;4.60;77.83
7297;BME280;40758;54.038;11.684;2023-05-03T00:41:02;102508.16;;;4.70;77.88
7297;BME280;40758;54.038;11.684;2023-05-03T00:43:28;102505.16;;;4.64;78.09
7297;BME280;40758;54.038;11.684;2023-05-03T00:45:55;102512.53;;;4.62;77.73
7297;BME280;40758;54.038;11.684;2023-05-03T00:48:41;102516.22;;;4.61;78.08
7297;BME280;40758;54.038;11.684;2023-05-03T00:51:11;102523.28;;;4.62;78.35
7297;BME280;40758;54.038;11.684;2023-05-03T00:53:38;102510.53;;;4.64;78.31
7297;BME280;40758;54.038;11.684;2023-05-03T00:56:06;102511.69;;;4.61;78.29
7297;BME280;40758;54.038;11.684;2023-05-03T00:58:32;102504.75;;;4.59;78.79
7297;BME280;40758;54.038;11.684;2023-05-03T01:01:01;102509.41;;;4.57;79.04
7297;BME280;40758;54.038;11.684;2023-05-03T01:03:28;102506.56;;;4.48;79.16
7297;BME280;40758;54.038;11.684;2023-05-03T01:06:10;102505.41;;;4.41;79.31
7297;BME280;40758;54.038;11.684;2023-05-03T01:17:16;102498.31;;;4.40;80.38
7297;BME280;40758;54.038;11.684;2023-05-03T01:19:50;102507.94;;;4.33;80.30
7297;BME280;40758;54.038;11.684;2023-05-03T01:25:10;102509.34;;;4.27;80.51
7297;BME280;40758;54.038;11.684;2023-05-03T01:27:38;102512.75;;;4.30;80.91
7297;BME280;40758;54.038;11.684;2023-05-03T01:30:09;102521.53;;;4.32;81.14
7297;BME280;40758;54.038;11.684;2023-05-03T01:35:25;102518.75;;;4.52;81.66
7297;BME280;40758;54.038;11.684;2023-05-03T01:37:56;102526.41;;;4.67;81.62
7297;BME280;40758;54.038;11.684;2023-05-03T01:40:25;102521.31;;;4.64;81.34
7297;BME280;40758;54.038;11.684;2023-05-03T01:42:54;102521.44;;;4.62;81.64
7297;BME280;40758;54.038;11.684;2023-05-03T01:45:21;102526.53;;;4.56;81.61
7297;BME280;40758;54.038;11.684;2023-05-03T01:47:48;102519.47;;;4.54;81.77
7297;BME280;40758;54.038;11.684;2023-05-03T01:50:16;102493.50;;;4.34;81.59
7297;BME280;40758;54.038;11.684;2023-05-03T01:52:43;102520.16;;;4.47;81.70
7297;BME280;40758;54.038;11.684;2023-05-03T01:55:10;102522.72;;;4.48;82.05
7297;BME280;40758;54.038;11.684;2023-05-03T01:57:37;102523.81;;;4.46;82.03
7297;BME280;40758;54.038;11.684;2023-05-03T02:00:04;102525.81;;;4.44;82.27
7297;BME280;40758;54.038;11.684;2023-05-03T02:02:31;102532.47;;;4.49;82.42
7297;BME280;40758;54.038;11.684;2023-05-03T02:04:58;102522.44;;;4.61;82.49
7297;BME280;40758;54.038;11.684;2023-05-03T02:07:24;102487.00;;;4.46;82.44
7297;BME280;40758;54.038;11.684;2023-05-03T02:09:51;102519.59;;;4.63;82.46
7297;BME280;40758;54.038;11.684;2023-05-03T02:12:17;102524.72;;;4.66;82.56
7297;BME280;40758;54.038;11.684;2023-05-03T02:14:44;102534.22;;;4.70;82.49
7297;BME280;40758;54.038;11.684;2023-05-03T02:17:11;102531.53;;;4.70;82.45
7297;BME280;40758;54.038;11.684;2023-05-03T02:19:37;102536.88;;;4.60;82.45
7297;BME280;40758;54.038;11.684;2023-05-03T02:22:04;102514.63;;;4.48;82.76
7297;BME280;40758;54.038;11.684;2023-05-03T02:24:31;102541.97;;;4.63;82.85
7297;BME280;40758;54.038;11.684;2023-05-03T02:27:02;102527.53;;;4.54;83.00
7297;BME280;40758;54.038;11.684;2023-05-03T02:29:31;102543.13;;;4.61;83.17
7297;BME280;40758;54.038;11.684;2023-05-03T02:31:58;102551.63;;;4.66;83.28
7297;BME280;40758;54.038;11.684;2023-05-03T02:34:25;102544.00;;;4.71;83.33
7297;BME280;40758;54.038;11.684;2023-05-03T02:36:52;102556.72;;;4.69;83.04
7297;BME280;40758;54.038;11.684;2023-05-03T02:39:19;102555.13;;;4.57;83.00
7297;BME280;40758;54.038;11.684;2023-05-03T02:41:46;102547.03;;;4.37;82.69
7297;BME280;40758;54.038;11.684;2023-05-03T02:44:13;102557.19;;;4.24;82.76
7297;BME280;40758;54.038;11.684;2023-05-03T02:46:40;102561.50;;;4.15;82.75
7297;BME280;40758;54.038;11.684;2023-05-03T02:49:08;102557.66;;;4.08;82.90
7297;BME280;40758;54.038;11.684;2023-05-03T02:51:35;102559.97;;;4.13;83.43
7297;BME280;40758;54.038;11.684;2023-05-03T02:54:01;102521.25;;;3.94;83.27
7297;BME280;40758;54.038;11.684;2023-05-03T02:56:28;102562.56;;;4.24;83.40
7297;BME280;40758;54.038;11.684;2023-05-03T02:58:56;102555.91;;;4.28;83.76
7297;BME280;40758;54.038;11.684;2023-05-03T03:01:22;102561.16;;;4.30;83.80
7297;BME280;40758;54.038;11.684;2023-05-03T03:03:49;102560.56;;;4.26;83.74
7297;BME280;40758;54.038;11.684;2023-05-03T03:06:16;102557.56;;;4.19;83.65
7297;BME280;40758;54.038;11.684;2023-05-03T03:08:43;102554.59;;;4.13;83.68
7297;BME280;40758;54.038;11.684;2023-05-03T03:11:09;102556.59;;;4.20;84.02
7297;BME280;40758;54.038;11.684;2023-05-03T03:13:36;102565.09;;;4.25;84.30
7297;BME280;40758;54.038;11.684;2023-05-03T03:16:06;102540.84;;;4.16;84.46
7297;BME280;40758;54.038;11.684;2023-05-03T03:18:33;102556.63;;;4.30;84.20
7297;BME280;40758;54.038;11.684;2023-05-03T03:21:03;102572.78;;;4.40;84.19
7297;BME280;40758;54.038;11.684;2023-05-03T03:23:29;102571.56;;;4.53;84.63
7297;BME280;40758;54.038;11.684;2023-05-03T03:25:56;102566.63;;;4.68;84.80
7297;BME280;40758;54.038;11.684;2023-05-03T03:28:23;102542.00;;;4.73;84.66
7297;BME280;40758;54.038;11.684;2023-05-03T03:30:49;102571.25;;;5.06;84.85
7297;BME280;40758;54.038;11.684;2023-05-03T03:33:16;102564.00;;;5.26;84.63
7297;BME280;40758;54.038;11.684;2023-05-03T03:35:43;102566.13;;;5.32;84.52
7297;BME280;40758;54.038;11.684;2023-05-03T03:38:10;102573.50;;;5.40;84.85
7297;BME280;40758;54.038;11.684;2023-05-03T03:40:36;102565.28;;;5.42;84.36
7297;BME280;40758;54.038;11.684;2023-05-03T03:43:03;102576.44;;;5.56;84.55
7297;BME280;40758;54.038;11.684;2023-05-03T03:45:29;102573.59;;;5.68;84.46
7297;BME280;40758;54.038;11.684;2023-05-03T03:47:56;102567.25;;;5.69;84.08
7297;BME280;40758;54.038;11.684;2023-05-03T03:50:24;102575.88;;;5.72;84.08
7297;BME280;40758;54.038;11.684;2023-05-03T03:52:51;102567.78;;;5.72;83.48
7297;BME280;40758;54.038;11.684;2023-05-03T03:55:18;102568.50;;;5.74;83.46
7297;BME280;40758;54.038;11.684;2023-05-03T03:57:44;102563.53;;;5.70;83.65
7297;BME280;40758;54.038;11.684;2023-05-03T04:00:11;102563.78;;;5.86;83.20
7297;BME280;40758;54.038;11.684;2023-05-03T04:02:38;102576.13;;;5.88;82.95
7297;BME280;40758;54.038;11.684;2023-05-03T04:05:05;102569.72;;;5.90;82.56
7297;BME280;40758;54.038;11.684;2023-05-03T04:07:33;102573.19;;;5.92;82.07
7297;BME280;40758;54.038;11.684;2023-05-03T04:10:00;102572.56;;;5.88;82.75
7297;BME280;40758;54.038;11.684;2023-05-03T04:12:27;102574.13;;;5.91;82.53
7297;BME280;40758;54.038;11.684;2023-05-03T04:14:53;102577.56;;;5.83;81.99
7297;BME280;40758;54.038;11.684;2023-05-03T04:17:22;102571.47;;;5.81;82.60
7297;BME280;40758;54.038;11.684;2023-05-03T04:19:49;102553.19;;;5.65;81.93
7297;BME280;40758;54.038;11.684;2023-05-03T04:22:15;102567.06;;;5.80;82.36
7297;BME280;40758;54.038;11.684;2023-05-03T04:24:42;102580.97;;;5.75;82.33
7297;BME280;40758;54.038;11.684;2023-05-03T04:27:09;102583.69;;;5.66;82.35
7297;BME280;40758;54.038;11.684;2023-05-03T04:29:36;102595.88;;;5.60;82.46
7297;BME280;40758;54.038;11.684;2023-05-03T04:32:04;102584.53;;;5.56;82.27
7297;BME280;40758;54.038;11.684;2023-05-03T04:34:39;102592.06;;;5.53;82.24
7297;BME280;40758;54.038;11.684;2023-05-03T04:37:13;102597.03;;;5.57;82.28
7297;BME280;40758;54.038;11.684;2023-05-03T04:39:40;102603.97;;;5.70;82.34
7297;BME280;40758;54.038;11.684;2023-05-03T04:42:07;102598.69;;;5.87;82.25
7297;BME280;40758;54.038;11.684;2023-05-03T04:44:34;102601.25;;;5.99;82.54
7297;BME280;40758;54.038;11.684;2023-05-03T04:47:01;102603.63;;;6.11;82.33
7297;BME280;40758;54.038;11.684;2023-05-03T04:49:28;102609.28;;;6.08;82.15
7297;BME280;40758;54.038;11.684;2023-05-03T04:51:54;102610.88;;;6.11;81.37
7297;BME280;40758;54.038;11.684;2023-05-03T04:54:23;102605.81;;;6.26;81.57
7297;BME280;40758;54.038;11.684;2023-05-03T04:56:49;102603.88;;;6.18;81.10
7297;BME280;40758;54.038;11.684;2023-05-03T04:59:17;102616.94;;;6.23;81.35
7297;BME280;40758;54.038;11.684;2023-05-03T05:01:45;102606.72;;;6.17;81.09
7297;BME280;40758;54.038;11.684;2023-05-03T05:04:16;102618.63;;;6.24;81.17
7297;BME280;40758;54.038;11.684;2023-05-03T05:06:45;102621.16;;;6.25;81.01
7297;BME280;40758;54.038;11.684;2023-05-03T05:09:27;102624.47;;;6.19;81.06
7297;BME280;40758;54.038;11.684;2023-05-03T05:11:54;102621.22;;;6.16;80.82
7297;BME280;40758;54.038;11.684;2023-05-03T05:14:22;102624.59;;;6.18;80.94
7297;BME280;40758;54.038;11.684;2023-05-03T05:16:49;102617.59;;;6.34;80.67
7297;BME280;40758;54.038;11.684;2023-05-03T05:19:16;102622.41;;;6.40;80.52
7297;BME280;40758;54.038;11.684;2023-05-03T05:21:43;102628.06;;;6.47;80.18
7297;BME280;40758;54.038;11.684;2023-05-03T05:24:09;102627.16;;;6.56;80.08
7297;BME280;40758;54.038;11.684;2023-05-03T05:26:37;102634.00;;;6.51;80.19
7297;BME280;40758;54.038;11.684;2023-05-03T05:29:04;102630.31;;;6.52;79.93
7297;BME280;40758;54.038;11.684;2023-05-03T05:31:31;102628.91;;;6.48;79.55
7297;BME280;40758;54.038;11.684;2023-05-03T05:33:58;102636.91;;;6.39;79.77
7297;BME280;40758;54.038;11.684;2023-05-03T05:36:25;102634.81;;;6.24;79.47
7297;BME280;40758;54.038;11.684;2023-05-03T05:38:54;102647.78;;;6.10;79.79
7297;BME280;40758;54.038;11.684;2023-05-03T05:41:21;102651.47;;;6.09;79.44
7297;BME280;40758;54.038;11.684;2023-05-03T05:43:48;102650.31;;;6.22;79.51
7297;BME280;40758;54.038;11.684;2023-05-03T05:46:15;102656.72;;;6.48;79.44
7297;BME280;40758;54.038;11.684;2023-05-03T05:48:42;102658.66;;;6.65;79.11
7297;BME280;40758;54.038;11.684;2023-05-03T05:51:08;102661.09;;;6.59;78.94
7297;BME280;40758;54.038;11.684;2023-05-03T05:53:36;102663.53;;;6.52;78.65
7297;BME280;40758;54.038;11.684;2023-05-03T05:56:03;102645.69;;;6.42;79.10
7297;BME280;40758;54.038;11.684;2023-05-03T05:58:32;102668.59;;;6.65;78.95
7297;BME280;40758;54.038;11.684;2023-05-03T06:00:59;102669.78;;;6.53;78.38
7297;BME280;40758;54.038;11.684;2023-05-03T06:03:29;102664.75;;;6.30;78.54
7297;BME280;40758;54.038;11.684;2023-05-03T06:05:57;102669.78;;;6.16;78.91
7297;BME280;40758;54.038;11.684;2023-05-03T06:08:24;102669.63;;;6.54;78.99
7297;BME280;40758;54.038;11.684;2023-05-03T06:10:52;102663.59;;;8.05;77.45
7297;BME280;40758;54.038;11.684;2023-05-03T06:13:19;102666.44;;;9.23;76.60
7297;BME280;40758;54.038;11.684;2023-05-03T06:15:46;102661.41;;;10.02;73.98
7297;BME280;40758;54.038;11.684;2023-05-03T06:18:13;102664.91;;;10.51;72.33
7297;BME280;40758;54.038;11.684;2023-05-03T06:20:48;102662.06;;;10.45;71.35
7297;BME280;40758;54.038;11.684;2023-05-03T06:23:16;102670.41;;;10.82;69.80
7297;BME280;40758;54.038;11.684;2023-05-03T06:25:47;102652.75;;;11.40;69.23
7297;BME280;40758;54.038;11.684;2023-05-03T06:28:15;102673.56;;;12.02;68.13
7297;BME280;40758;54.038;11.684;2023-05-03T06:30:49;102679.41;;;11.45;66.61
7297;BME280;40758;54.038;11.684;2023-05-03T06:33:17;102686.97;;;10.96;66.04
7297;BME280;40758;54.038;11.684;2023-05-03T06:35:44;102676.91;;;11.35;65.43
7297;BME280;40758;54.038;11.684;2023-05-03T06:38:12;102680.78;;;11.41;64.25
7297;BME280;40758;54.038;11.684;2023-05-03T06:40:39;102665.94;;;11.97;63.97
7297;BME280;40758;54.038;11.684;2023-05-03T06:43:06;102676.09;;;12.04;63.31
7297;BME280;40758;54.038;11.684;2023-05-03T06:45:33;102679.81;;;12.25;62.32
7297;BME280;40758;54.038;11.684;2023-05-03T06:48:00;102678.81;;;12.41;62.07
7297;BME280;40758;54.038;11.684;2023-05-03T06:50:27;102677.38;;;12.75;60.56
7297;BME280;40758;54.038;11.684;2023-05-03T06:52:55;102681.59;;;12.33;59.24
7297;BME280;40758;54.038;11.684;2023-05-03T06:55:22;102687.16;;;10.94;59.80
7297;BME280;40758;54.038;11.684;2023-05-03T06:57:48;102679.72;;;9.83;60.78
7297;BME280;40758;54.038;11.684;2023-05-03T07:00:18;102690.47;;;9.18;62.30
7297;BME280;40758;54.038;11.684;2023-05-03T07:02:46;102696.00;;;9.67;63.36
7297;BME280;40758;54.038;11.684;2023-05-03T07:05:14;102695.00;;;10.33;63.67
7297;BME280;40758;54.038;11.684;2023-05-03T07:07:44;102700.28;;;11.84;62.99
7297;BME280;40758;54.038;11.684;2023-05-03T07:10:11;102679.34;;;13.11;61.35
7297;BME280;40758;54.038;11.684;2023-05-03T07:12:38;102696.69;;;12.59;59.79
7297;BME280;40758;54.038;11.684;2023-05-03T07:15:05;102692.84;;;11.69;58.93
7297;BME280;40758;54.038;11.684;2023-05-03T07:17:32;102696.59;;;11.14;58.74
7297;BME280;40758;54.038;11.684;2023-05-03T07:19:59;102701.91;;;11.08;58.80
7297;BME280;40758;54.038;11.684;2023-05-03T07:22:27;102702.78;;;11.00;59.09
7297;BME280;40758;54.038;11.684;2023-05-03T07:24:54;102693.47;;;11.80;58.75
7297;BME280;40758;54.038;11.684;2023-05-03T07:27:25;102692.69;;;12.46;57.61
7297;BME280;40758;54.038;11.684;2023-05-03T07:29:53;102691.91;;;11.85;57.39
7297;BME280;40758;54.038;11.684;2023-05-03T07:32:20;102687.63;;;11.06;57.25
7297;BME280;40758;54.038;11.684;2023-05-03T07:34:49;102702.91;;;10.68;57.64
7297;BME280;40758;54.038;11.684;2023-05-03T07:37:16;102695.69;;;10.91;58.10
7297;BME280;40758;54.038;11.684;2023-05-03T07:39:43;102698.56;;;11.29;58.07
7297;BME280;40758;54.038;11.684;2023-05-03T07:42:11;102688.91;;;12.18;59.03
7297;BME280;40758;54.038;11.684;2023-05-03T07:44:37;102688.19;;;12.39;57.23
7297;BME280;40758;54.038;11.684;2023-05-03T07:47:04;102691.19;;;11.91;56.81
7297;BME280;40758;54.038;11.684;2023-05-03T07:49:36;102684.69;;;11.92;56.68
7297;BME280;40758;54.038;11.684;2023-05-03T07:52:03;102692.59;;;11.33;57.10
7297;BME280;40758;54.038;11.684;2023-05-03T07:54:29;102695.56;;;10.76;57.18
7297;BME280;40758;54.038;11.684;2023-05-03T07:56:57;102687.59;;;11.68;58.12
7297;BME280;40758;54.038;11.684;2023-05-03T07:59:24;102697.97;;;11.41;57.16
7297;BME280;40758;54.038;11.684;2023-05-03T08:01:50;102702.69;;;10.85;56.51
7297;BME280;40758;54.038;11.684;2023-05-03T08:04:17;102697.19;;;10.46;57.08
7297;BME280;40758;54.038;11.684;2023-05-03T08:06:44;102699.91;;;10.30;57.70
7297;BME280;40758;54.038;11.684;2023-05-03T08:09:11;102702.50;;;11.26;58.07
7297;BME280;40758;54.038;11.684;2023-05-03T08:11:39;102699.19;;;12.45;56.65
7297;BME280;40758;54.038;11.684;2023-05-03T08:14:09;102702.69;;;12.16;54.48
7297;BME280;40758;54.038;11.684;2023-05-03T08:16:36;102714.66;;;11.38;54.53
7297;BME280;40758;54.038;11.684;2023-05-03T08:19:03;102716.16;;;11.10;54.58
7297;BME280;40758;54.038;11.684;2023-05-03T08:21:30;102719.94;;;11.63;55.91
7297;BME280;40758;54.038;11.684;2023-05-03T08:23:59;102717.94;;;11.57;55.53
7297;BME280;40758;54.038;11.684;2023-05-03T08:26:27;102722.31;;;11.35;54.89
7297;BME280;40758;54.038;11.684;2023-05-03T08:28:55;102701.97;;;11.23;55.04
7297;BME280;40758;54.038;11.684;2023-05-03T08:31:23;102701.97;;;10.91;56.05
7297;BME280;40758;54.038;11.684;2023-05-03T08:33:51;102717.50;;;10.66;57.07
7297;BME280;40758;54.038;11.684;2023-05-03T08:36:17;102718.75;;;10.31;57.51
7297;BME280;40758;54.038;11.684;2023-05-03T08:38:44;102710.13;;;11.31;57.50
7297;BME280;40758;54.038;11.684;2023-05-03T08:41:17;102705.66;;;12.44;56.45
7297;BME280;40758;54.038;11.684;2023-05-03T08:43:51;102710.41;;;12.65;55.21
7297;BME280;40758;54.038;11.684;2023-05-03T08:46:18;102715.13;;;11.73;54.17
7297;BME280;40758;54.038;11.684;2023-05-03T08:48:47;102725.44;;;10.84;53.99
7297;BME280;40758;54.038;11.684;2023-05-03T08:51:20;102731.47;;;10.31;55.71
7297;BME280;40758;54.038;11.684;2023-05-03T08:53:47;102720.88;;;11.16;56.14
7297;BME280;40758;54.038;11.684;2023-05-03T08:56:29;102722.75;;;12.38;55.56
7297;BME280;40758;54.038;11.684;2023-05-03T08:58:59;102727.94;;;12.92;54.37
7297;BME280;40758;54.038;11.684;2023-05-03T09:01:34;102725.41;;;13.56;52.75
7297;BME280;40758;54.038;11.684;2023-05-03T09:04:01;102733.66;;;13.42;50.83
7297;BME280;40758;54.038;11.684;2023-05-03T09:06:30;102715.78;;;12.21;50.28
7297;BME280;40758;54.038;11.684;2023-05-03T09:08:59;102738.19;;;11.85;51.58
7297;BME280;40758;54.038;11.684;2023-05-03T09:11:30;102721.94;;;12.15;52.41
7297;BME280;40758;54.038;11.684;2023-05-03T09:14:18;102737.94;;;13.29;52.43
7297;BME280;40758;54.038;11.684;2023-05-03T09:16:46;102737.19;;;13.06;51.89
7297;BME280;40758;54.038;11.684;2023-05-03T09:19:14;102743.97;;;12.28;51.11
7297;BME280;40758;54.038;11.684;2023-05-03T09:21:45;102745.00;;;11.81;52.17
7297;BME280;40758;54.038;11.684;2023-05-03T09:24:18;102758.75;;;11.57;52.52
7297;BME280;40758;54.038;11.684;2023-05-03T09:26:49;102760.84;;;11.46;52.85
7297;BME280;40758;54.038;11.684;2023-05-03T09:29:30;102740.63;;;11.49;53.16
7297;BME280;40758;54.038;11.684;2023-05-03T09:32:00;102767.03;;;11.63;53.42
7297;BME280;40758;54.038;11.684;2023-05-03T09:34:29;102778.69;;;11.10;53.88
7297;BME280;40758;54.038;11.684;2023-05-03T09:36:59;102750.63;;;10.62;55.02
7297;BME280;40758;54.038;11.684;2023-05-03T09:39:26;102777.13;;;10.35;55.62
7297;BME280;40758;54.038;11.684;2023-05-03T09:41:53;102775.75;;;10.15;56.40
7297;BME280;40758;54.038;11.684;2023-05-03T09:44:39;102781.88;;;10.25;57.10
7297;BME280;40758;54.038;11.684;2023-05-03T09:47:20;102779.84;;;10.35;57.49
7297;BME280;40758;54.038;11.684;2023-05-03T09:49:48;102788.31;;;10.16;57.25
7297;BME280;40758;54.038;11.684;2023-05-03T09:52:15;102784.06;;;10.79;58.64
7297;BME280;40758;54.038;11.684;2023-05-03T09:54:42;102761.69;;;11.78;58.22
7297;BME280;40758;54.038;11.684;2023-05-03T09:57:16;102752.97;;;12.66;56.43
7297;BME280;40758;54.038;11.684;2023-05-03T09:59:44;102755.22;;;13.51;55.36
7297;BME280;40758;54.038;11.684;2023-05-03T10:02:13;102760.59;;;13.00;52.71
7297;BME280;40758;54.038;11.684;2023-05-03T10:04:47;102756.47;;;12.37;52.01
7297;BME280;40758;54.038;11.684;2023-05-03T10:07:26;102761.91;;;11.68;52.15
7297;BME280;40758;54.038;11.684;2023-05-03T10:09:56;102753.78;;;11.29;52.34
7297;BME280;40758;54.038;11.684;2023-05-03T10:12:29;102755.25;;;11.01;53.08
7297;BME280;40758;54.038;11.684;2023-05-03T10:14:57;102754.13;;;10.87;53.63
7297;BME280;40758;54.038;11.684;2023-05-03T10:17:28;102748.97;;;11.00;54.23
7297;BME280;40758;54.038;11.684;2023-05-03T10:23:12;102756.06;;;10.62;54.62
7297;BME280;40758;54.038;11.684;2023-05-03T10:28:33;102746.25;;;10.28;55.77
7297;BME280;40758;54.038;11.684;2023-05-03T10:30:59;102748.78;;;10.22;56.17
7297;BME280;40758;54.038;11.684;2023-05-03T10:33:31;102756.25;;;10.03;55.93
7297;BME280;40758;54.038;11.684;2023-05-03T10:35:58;102753.03;;;10.24;56.78
7297;BME280;40758;54.038;11.684;2023-05-03T10:38:27;102758.78;;;10.21;56.34
7297;BME280;40758;54.038;11.684;2023-05-03T10:40:55;102755.38;;;10.03;55.99
7297;BME280;40758;54.038;11.684;2023-05-03T10:45:58;102759.78;;;9.96;56.15
7297;BME280;40758;54.038;11.684;2023-05-03T10:48:25;102756.03;;;9.97;56.50
7297;BME280;40758;54.038;11.684;2023-05-03T10:50:55;102758.44;;;10.00;56.63
7297;BME280;40758;54.038;11.684;2023-05-03T10:53:37;102758.75;;;9.97;57.32
7297;BME280;40758;54.038;11.684;2023-05-03T10:56:10;102758.44;;;10.00;57.58
7297;BME280;40758;54.038;11.684;2023-05-03T10:58:45;102749.31;;;10.50;58.61
7297;BME280;40758;54.038;11.684;2023-05-03T11:01:15;102753.00;;;11.12;57.72
7297;BME280;40758;54.038;11.684;2023-05-03T11:06:35;102751.69;;;11.70;54.06
7297;BME280;40758;54.038;11.684;2023-05-03T11:09:04;102755.53;;;11.53;52.84
7297;BME280;40758;54.038;11.684;2023-05-03T11:11:34;102751.06;;;11.37;52.91
7297;BME280;40758;54.038;11.684;2023-05-03T11:14:02;102749.88;;;11.32;52.78
7297;BME280;40758;54.038;11.684;2023-05-03T11:16:30;102744.31;;;11.17;53.38
7297;BME280;40758;54.038;11.684;2023-05-03T11:18:58;102750.34;;;11.04;52.65
7297;BME280;40758;54.038;11.684;2023-05-03T11:21:24;102758.34;;;10.89;52.61
7297;BME280;40758;54.038;11.684;2023-05-03T11:23:52;102748.03;;;10.77;53.16
7297;BME280;40758;54.038;11.684;2023-05-03T11:26:20;102764.63;;;10.98;53.15
7297;BME280;40758;54.038;11.684;2023-05-03T11:28:52;102738.81;;;10.94;53.24
7297;BME280;40758;54.038;11.684;2023-05-03T11:31:19;102761.22;;;11.04;53.12
7297;BME280;40758;54.038;11.684;2023-05-03T11:33:48;102762.44;;;10.93;53.01
7297;BME280;40758;54.038;11.684;2023-05-03T11:36:15;102758.38;;;10.81;53.21
7297;BME280;40758;54.038;11.684;2023-05-03T11:38:43;102752.25;;;10.87;53.39
7297;BME280;40758;54.038;11.684;2023-05-03T11:41:15;102744.38;;;11.09;53.77
7297;BME280;40758;54.038;11.684;2023-05-03T11:43:43;102757.31;;;11.69;52.94
7297;BME280;40758;54.038;11.684;2023-05-03T11:46:12;102737.75;;;11.42;52.02
7297;BME280;40758;54.038;11.684;2023-05-03T11:48:42;102752.63;;;11.24;51.87
7297;BME280;40758;54.038;11.684;2023-05-03T11:51:09;102750.41;;;11.27;52.13
7297;BME280;40758;54.038;11.684;2023-05-03T11:53:39;102744.28;;;11.87;52.76
7297;BME280;40758;54.038;11.684;2023-05-03T11:56:12;102738.44;;;12.36;51.09
7297;BME280;40758;54.038;11.684;2023-05-03T11:58:54;102739.13;;;12.68;50.67
7297;BME280;40758;54.038;11.684;2023-05-03T12:01:24;102737.34;;;12.60;50.31
7297;BME280;40758;54.038;11.684;2023-05-03T12:03:59;102744.19;;;12.41;49.69
7297;BME280;40758;54.038;11.684;2023-05-03T12:06:30;102748.53;;;12.13;49.37
7297;BME280;40758;54.038;11.684;2023-05-03T12:09:02;102748.31;;;11.68;49.50
7297;BME280;40758;54.038;11.684;2023-05-03T12:11:29;102747.97;;;11.40;48.97
7297;BME280;40758;54.038;11.684;2023-05-03T12:14:01;102750.09;;;11.22;49.53
7297;BME280;40758;54.038;11.684;2023-05-03T12:16:45;102746.50;;;10.90;49.04
7297;BME280;40758;54.038;11.684;2023-05-03T12:19:31;102729.38;;;10.65;49.87
7297;BME280;40758;54.038;11.684;2023-05-03T12:22:03;102754.84;;;10.81;50.42
7297;BME280;40758;54.038;11.684;2023-05-03T12:24:50;102746.16;;;10.85;50.32
7297;BME280;40758;54.038;11.684;2023-05-03T12:27:28;102741.56;;;10.86;50.46
7297;BME280;40758;54.038;11.684;2023-05-03T12:29:58;102747.34;;;10.83;50.84
7297;BME280;40758;54.038;11.684;2023-05-03T12:32:27;102744.75;;;10.89;51.15
7297;BME280;40758;54.038;11.684;2023-05-03T12:34:56;102747.56;;;10.73;50.61
7297;BME280;40758;54.038;11.684;2023-05-03T12:37:27;102755.16;;;10.78;51.20
7297;BME280;40758;54.038;11.684;2023-05-03T12:39:58;102720.91;;;10.60;50.81
7297;BME280;40758;54.038;11.684;2023-05-03T12:42:45;102755.47;;;11.38;51.58
7297;BME280;40758;54.038;11.684;2023-05-03T12:45:14;102743.97;;;12.05;51.27
7297;BME280;40758;54.038;11.684;2023-05-03T12:47:42;102741.06;;;12.30;50.37
7297;BME280;40758;54.038;11.684;2023-05-03T12:50:15;102731.59;;;12.40;49.14
7297;BME280;40758;54.038;11.684;2023-05-03T12:52:44;102743.81;;;12.44;48.31
7297;BME280;40758;54.038;11.684;2023-05-03T12:55:12;102737.13;;;12.32;47.60
7297;BME280;40758;54.038;11.684;2023-05-03T12:57:46;102731.59;;;12.40;48.27
7297;BME280;40758;54.038;11.684;2023-05-03T13:00:34;102733.13;;;12.72;48.26
7297;BME280;40758;54.038;11.684;2023-05-03T13:03:11;102728.44;;;12.66;47.06
7297;BME280;40758;54.038;11.684;2023-05-03T13:05:47;102723.72;;;12.75;46.95
7297;BME280;40758;54.038;11.684;2023-05-03T13:08:16;102721.38;;;13.16;47.37
7297;BME280;40758;54.038;11.684;2023-05-03T13:10:48;102715.31;;;13.72;46.78
7297;BME280;40758;54.038;11.684;2023-05-03T13:13:16;102716.75;;;14.38;46.41
7297;BME280;40758;54.038;11.684;2023-05-03T13:15:43;102706.78;;;14.87;45.52
7297;BME280;40758;54.038;11.684;2023-05-03T13:18:11;102710.19;;;15.43;43.94
7297;BME280;40758;54.038;11.684;2023-05-03T13:20:41;102713.00;;;15.63;43.65
7297;BME280;40758;54.038;11.684;2023-05-03T13:23:07;102699.53;;;15.88;43.43
7297;BME280;40758;54.038;11.684;2023-05-03T13:25:34;102704.00;;;16.16;43.33
7297;BME280;40758;54.038;11.684;2023-05-03T13:28:01;102695.13;;;15.94;42.51
7297;BME280;40758;54.038;11.684;2023-05-03T13:30:28;102699.34;;;15.83;41.82
7297;BME280;40758;54.038;11.684;2023-05-03T13:32:56;102696.78;;;15.75;41.68